Terminal Aerodrome Forecast
Issued by NWS

Home | Current Version | Previous Version | Graphics & Text | Print | Product List | Glossary On
Versions: 1 2 3 4 5 6 7 8 9 10 11 12 13 14 15 16 17
776
FTUS43 KOAX 191723
TAFCDR
TAF
KCDR 191723Z 1918/2018 03014KT P6SM VCSH OVC015
     FM200300 VRB03KT P6SM SCT008 OVC015=

USA.gov is the U.S. government's official web portal to all federal, state and local government web resources and services.